createdAt,value
2018-05-15T00:00:22.798Z,14.90
2018-05-15T00:02:48.917Z,14.90
2018-05-15T00:05:15.017Z,14.80
2018-05-15T00:07:41.114Z,14.70
2018-05-15T00:10:07.983Z,14.60
2018-05-15T00:12:34.796Z,14.50
2018-05-15T00:15:00.871Z,14.50
2018-05-15T00:17:26.936Z,14.50
2018-05-15T00:19:53.002Z,14.40
2018-05-15T00:22:19.047Z,14.40
2018-05-15T00:24:45.132Z,14.40
2018-05-15T00:27:11.256Z,14.30
2018-05-15T00:29:37.342Z,14.30
2018-05-15T00:32:03.384Z,14.20
2018-05-15T00:34:29.471Z,14.20
2018-05-15T00:36:55.555Z,14.20
2018-05-15T00:39:21.617Z,14.10
2018-05-15T00:41:47.676Z,14.10
2018-05-15T00:44:14.653Z,14.00
2018-05-15T00:46:40.875Z,14.00
2018-05-15T00:49:07.693Z,13.90
2018-05-15T00:51:33.767Z,13.90
2018-05-15T00:53:59.867Z,13.90
2018-05-15T00:56:25.953Z,13.80
2018-05-15T00:58:52.807Z,13.80
2018-05-15T01:01:19.644Z,13.70
2018-05-15T01:03:45.782Z,13.70
2018-05-15T01:06:11.899Z,13.70
2018-05-15T01:08:37.994Z,13.70
2018-05-15T01:11:04.097Z,13.60
2018-05-15T01:13:30.179Z,13.60
2018-05-15T01:15:56.274Z,13.60
2018-05-15T01:18:22.351Z,13.50
2018-05-15T01:20:48.422Z,13.50
2018-05-15T01:23:14.551Z,13.50
2018-05-15T01:25:40.690Z,13.50
2018-05-15T01:28:06.730Z,13.40
2018-05-15T01:30:32.825Z,13.40
2018-05-15T01:32:59.667Z,13.40
2018-05-15T01:35:25.740Z,13.40
2018-05-15T01:37:51.847Z,13.40
2018-05-15T01:40:18.824Z,13.30
2018-05-15T01:42:44.864Z,13.30
2018-05-15T01:45:11.226Z,13.30
2018-05-15T01:47:37.442Z,13.30
2018-05-15T01:50:03.545Z,13.30
2018-05-15T01:52:29.697Z,13.30
2018-05-15T01:54:55.748Z,13.20
2018-05-15T01:57:23.133Z,13.20
2018-05-15T01:59:49.227Z,13.10
2018-05-15T02:02:15.330Z,13.10
2018-05-15T02:04:41.434Z,13.10
2018-05-15T02:07:07.556Z,13.10
2018-05-15T02:09:33.620Z,13.10
2018-05-15T02:11:59.666Z,13.00
2018-05-15T02:14:25.785Z,13.00
2018-05-15T02:16:52.605Z,13.00
2018-05-15T02:19:18.647Z,12.90
2018-05-15T02:21:44.768Z,12.90
2018-05-15T02:24:10.880Z,12.90
2018-05-15T02:26:36.928Z,12.90
2018-05-15T02:29:03.253Z,12.90
2018-05-15T02:31:29.457Z,12.80
2018-05-15T02:33:56.280Z,12.80
2018-05-15T02:36:22.351Z,12.70
2018-05-15T02:38:48.420Z,12.70
2018-05-15T02:41:14.507Z,12.70
2018-05-15T02:43:40.563Z,12.70
2018-05-15T02:46:06.954Z,12.70
2018-05-15T02:48:33.025Z,12.70
2018-05-15T02:50:59.110Z,12.70
2018-05-15T02:53:25.187Z,12.60
2018-05-15T02:55:51.618Z,12.70
2018-05-15T02:58:17.727Z,12.60
2018-05-15T03:00:43.888Z,12.60
2018-05-15T03:03:11.078Z,12.60
2018-05-15T03:05:37.169Z,12.50
2018-05-15T03:08:04.012Z,12.50
2018-05-15T03:10:30.854Z,12.50
2018-05-15T03:12:56.912Z,12.50
2018-05-15T03:15:23.002Z,12.40
2018-05-15T03:17:49.106Z,12.40
2018-05-15T03:20:15.217Z,12.40
2018-05-15T03:22:42.100Z,12.40
2018-05-15T03:25:08.180Z,12.40
2018-05-15T03:27:34.244Z,12.40
2018-05-15T03:30:00.377Z,12.40
2018-05-15T03:32:26.471Z,12.40
2018-05-15T03:34:52.580Z,12.40
2018-05-15T03:37:18.646Z,12.40
2018-05-15T03:39:44.781Z,12.40
2018-05-15T03:42:10.901Z,12.40
2018-05-15T03:44:37.736Z,12.40
2018-05-15T03:47:03.868Z,12.40
2018-05-15T03:49:29.994Z,12.40
2018-05-15T03:51:56.065Z,12.40
2018-05-15T03:54:22.859Z,12.60
2018-05-15T03:56:49.033Z,12.50
2018-05-15T03:59:15.190Z,12.60
2018-05-15T04:01:53.627Z,12.60
2018-05-15T04:04:31.841Z,12.60
2018-05-15T04:07:10.371Z,12.70
2018-05-15T04:09:36.461Z,12.70
2018-05-15T04:12:02.563Z,12.80
2018-05-15T04:14:30.227Z,12.90
2018-05-15T04:16:56.278Z,12.90
2018-05-15T04:19:23.071Z,12.90
2018-05-15T04:21:49.193Z,12.90
2018-05-15T04:24:15.287Z,13.00
2018-05-15T04:26:41.442Z,13.00
2018-05-15T04:29:08.231Z,13.10
2018-05-15T04:31:34.277Z,13.00
2018-05-15T04:34:00.356Z,13.10
2018-05-15T04:36:26.433Z,13.20
2018-05-15T04:38:52.514Z,13.20
2018-05-15T04:41:18.553Z,13.30
2018-05-15T04:43:44.712Z,13.30
2018-05-15T04:46:10.701Z,13.40
2018-05-15T04:48:36.874Z,13.40
2018-05-15T04:51:02.944Z,13.50
2018-05-15T04:53:29.886Z,13.50
2018-05-15T04:55:56.804Z,13.60
2018-05-15T04:58:22.891Z,13.60
2018-05-15T05:00:49.878Z,13.70
2018-05-15T05:03:15.987Z,13.70
2018-05-15T05:05:42.362Z,13.80
2018-05-15T05:08:08.450Z,13.80
2018-05-15T05:10:34.584Z,13.90
2018-05-15T05:13:00.703Z,14.00
2018-05-15T05:15:33.053Z,14.00
2018-05-15T05:17:59.149Z,14.10
2018-05-15T05:20:25.225Z,14.20
2018-05-15T05:22:51.277Z,14.20
2018-05-15T05:25:17.415Z,14.30
2018-05-15T05:27:43.591Z,14.40
2018-05-15T05:30:09.668Z,14.50
2018-05-15T05:32:36.453Z,14.60
2018-05-15T05:35:02.529Z,14.60
2018-05-15T05:37:28.668Z,14.70
2018-05-15T05:39:54.733Z,14.80
2018-05-15T05:42:21.570Z,14.90
2018-05-15T05:44:47.661Z,14.90
2018-05-15T05:47:13.714Z,15.00
2018-05-15T05:49:39.841Z,15.00
2018-05-15T05:52:05.957Z,15.20
2018-05-15T05:54:32.758Z,15.30
2018-05-15T05:56:58.801Z,15.30
2018-05-15T05:59:24.919Z,15.40
2018-05-15T06:01:51.346Z,15.50
2018-05-15T06:04:17.426Z,15.50
2018-05-15T06:06:43.532Z,15.60
2018-05-15T06:09:09.684Z,15.70
2018-05-15T06:11:35.793Z,15.80
2018-05-15T06:14:02.255Z,15.80
2018-05-15T06:16:28.298Z,15.90
2018-05-15T06:18:54.374Z,16.00
2018-05-15T06:21:20.445Z,16.10
2018-05-15T06:23:46.535Z,16.20
2018-05-15T06:26:13.480Z,16.30
2018-05-15T06:28:39.553Z,16.40
2018-05-15T06:31:05.612Z,16.40
2018-05-15T06:33:32.482Z,16.60
2018-05-15T06:35:58.581Z,16.60
2018-05-15T06:38:24.738Z,16.60
2018-05-15T06:40:50.836Z,16.70
2018-05-15T06:43:16.960Z,16.80
2018-05-15T06:45:43.063Z,16.90
2018-05-15T06:48:09.904Z,17.00
2018-05-15T06:50:35.984Z,17.00
2018-05-15T06:53:02.180Z,17.10
2018-05-15T06:55:28.277Z,17.20
2018-05-15T06:57:54.369Z,17.30
2018-05-15T07:00:21.305Z,17.50
2018-05-15T07:02:47.490Z,17.50
2018-05-15T07:05:13.719Z,17.60
2018-05-15T07:07:39.828Z,17.70
2018-05-15T07:10:05.924Z,17.90
2018-05-15T07:12:32.033Z,17.90
2018-05-15T07:14:58.105Z,18.00
2018-05-15T07:17:24.197Z,18.10
2018-05-15T07:19:51.001Z,18.40
2018-05-15T07:22:17.121Z,18.30
2018-05-15T07:24:43.275Z,18.50
2018-05-15T07:27:09.591Z,18.50
2018-05-15T07:29:35.649Z,18.60
2018-05-15T07:32:01.732Z,18.60
2018-05-15T07:34:27.773Z,18.60
2018-05-15T07:36:53.842Z,18.70
2018-05-15T07:39:19.910Z,18.80
2018-05-15T07:41:46.005Z,18.90
2018-05-15T07:44:12.174Z,19.10
2018-05-15T07:46:38.212Z,19.20
2018-05-15T07:49:04.319Z,19.20
2018-05-15T07:51:31.025Z,19.50
2018-05-15T07:53:57.008Z,19.40
2018-05-15T07:56:22.997Z,19.50
2018-05-15T07:58:49.888Z,19.60
2018-05-15T08:01:16.592Z,19.90
2018-05-15T08:03:42.826Z,19.80
2018-05-15T08:06:08.785Z,19.90
2018-05-15T08:08:34.768Z,20.00
2018-05-15T08:11:01.510Z,20.20
2018-05-15T08:13:27.489Z,20.10
2018-05-15T08:15:53.551Z,20.30
2018-05-15T08:18:19.529Z,20.40
2018-05-15T08:20:46.716Z,20.50
2018-05-15T08:23:12.749Z,20.50
2018-05-15T08:25:38.687Z,20.60
2018-05-15T08:28:04.690Z,20.70
2018-05-15T08:30:30.634Z,20.80
2018-05-15T08:32:57.325Z,21.00
2018-05-15T08:35:23.282Z,21.00
2018-05-15T08:37:49.217Z,21.20
2018-05-15T08:40:15.204Z,21.30
2018-05-15T08:42:41.185Z,21.50
2018-05-15T08:45:07.155Z,21.60
2018-05-15T08:47:33.081Z,21.70
2018-05-15T08:49:59.817Z,21.80
2018-05-15T08:52:25.754Z,21.80
2018-05-15T08:54:51.752Z,21.90
2018-05-15T08:57:17.733Z,22.00
2018-05-15T08:59:43.703Z,22.10
2018-05-15T09:02:10.421Z,22.00
2018-05-15T09:04:36.437Z,22.00
2018-05-15T09:07:02.463Z,22.10
2018-05-15T09:09:28.470Z,22.20
2018-05-15T09:11:54.473Z,22.20
2018-05-15T09:14:20.515Z,22.30
2018-05-15T09:16:46.507Z,22.30
2018-05-15T09:19:12.544Z,22.40
2018-05-15T09:21:39.193Z,22.60
2018-05-15T09:24:05.165Z,22.60
2018-05-15T09:26:31.175Z,22.60
2018-05-15T09:28:57.147Z,22.80
2018-05-15T09:31:23.121Z,22.90
2018-05-15T09:33:49.055Z,22.90
2018-05-15T09:36:15.153Z,22.90
2018-05-15T09:38:41.131Z,23.00
2018-05-15T09:41:07.578Z,23.20
2018-05-15T09:46:31.296Z,23.40
2018-05-15T09:48:57.430Z,23.50
2018-05-15T09:51:23.466Z,23.60
2018-05-15T09:53:49.504Z,23.70
2018-05-15T09:56:16.343Z,23.80
2018-05-15T09:58:43.343Z,24.00
2018-05-15T10:01:09.399Z,23.90
2018-05-15T10:03:35.478Z,24.00
2018-05-15T10:06:02.285Z,24.10
2018-05-15T10:08:28.368Z,24.10
2018-05-15T10:10:55.187Z,24.40
2018-05-15T10:13:21.269Z,24.40
2018-05-15T10:15:48.100Z,24.70
2018-05-15T10:18:14.180Z,24.60
2018-05-15T10:20:40.266Z,24.80
2018-05-15T10:23:07.109Z,24.90
2018-05-15T10:25:33.156Z,24.90
2018-05-15T10:27:59.227Z,25.10
2018-05-15T10:30:26.102Z,25.30
2018-05-15T10:32:52.197Z,25.30
2018-05-15T10:35:18.252Z,25.50
2018-05-15T10:37:44.978Z,26.00
2018-05-15T10:40:10.933Z,25.90
2018-05-15T10:42:36.899Z,26.10
2018-05-15T10:45:03.187Z,26.20
2018-05-15T10:47:29.905Z,26.60
2018-05-15T10:49:55.880Z,26.60
2018-05-15T10:52:21.916Z,26.50
2018-05-15T10:54:47.851Z,26.40
2018-05-15T10:57:13.815Z,26.50
2018-05-15T10:59:39.924Z,26.50
2018-05-15T11:02:05.964Z,26.60
2018-05-15T11:04:32.031Z,26.80
2018-05-15T11:06:58.058Z,26.90
2018-05-15T11:09:25.245Z,27.40
2018-05-15T11:11:53.908Z,27.90
2018-05-15T11:14:20.083Z,27.80
2018-05-15T11:16:46.250Z,28.60
2018-05-15T11:19:24.609Z,29.20
2018-05-15T11:22:03.205Z,29.40
2018-05-15T11:27:26.982Z,30.20
2018-05-15T11:29:52.928Z,30.70
2018-05-15T11:32:19.790Z,31.60
2018-05-15T11:34:46.629Z,31.30
2018-05-15T11:37:13.762Z,31.70
2018-05-15T11:39:39.804Z,31.70
2018-05-15T11:42:05.875Z,32.20
2018-05-15T11:44:32.712Z,32.90
2018-05-15T11:46:58.787Z,32.90
2018-05-15T11:49:25.608Z,33.10
2018-05-15T11:51:51.964Z,33.90
2018-05-15T11:54:17.326Z,33.50
2018-05-15T11:56:43.399Z,32.70
2018-05-15T11:59:09.467Z,31.70
2018-05-15T12:01:36.295Z,31.00
2018-05-15T12:04:02.483Z,31.00
2018-05-15T12:06:28.480Z,31.70
2018-05-15T12:08:54.542Z,32.60
2018-05-15T12:11:21.326Z,33.80
2018-05-15T12:13:47.362Z,33.80
2018-05-15T12:16:13.463Z,34.50
2018-05-15T12:18:40.284Z,35.50
2018-05-15T12:21:06.325Z,35.40
2018-05-15T12:23:32.918Z,35.70
2018-05-15T12:25:58.980Z,36.40
2018-05-15T12:28:25.034Z,36.60
2018-05-15T12:30:51.146Z,36.30
2018-05-15T12:33:17.229Z,37.20
2018-05-15T12:35:43.318Z,37.40
2018-05-15T12:38:09.430Z,37.30
2018-05-15T12:40:35.505Z,35.50
2018-05-15T12:43:01.526Z,34.80
2018-05-15T12:45:28.386Z,35.50
2018-05-15T12:47:54.520Z,35.50
2018-05-15T12:50:20.518Z,36.30
2018-05-15T12:52:46.602Z,36.50
2018-05-15T12:55:12.819Z,37.20
2018-05-15T12:57:39.613Z,38.50
2018-05-15T13:00:05.738Z,38.40
2018-05-15T13:02:31.765Z,38.40
2018-05-15T13:04:58.558Z,38.20
2018-05-15T13:07:24.597Z,38.20
2018-05-15T13:09:50.731Z,38.20
2018-05-15T13:12:16.793Z,38.30
2018-05-15T13:14:43.340Z,38.50
2018-05-15T13:17:09.438Z,38.80
2018-05-15T13:19:35.567Z,39.10
2018-05-15T13:22:01.621Z,39.40
2018-05-15T13:24:27.773Z,39.90
2018-05-15T13:26:54.567Z,40.70
2018-05-15T13:29:20.652Z,40.80
2018-05-15T13:31:46.890Z,41.00
2018-05-15T13:34:12.969Z,41.50
2018-05-15T13:36:39.036Z,42.20
2018-05-15T13:39:05.865Z,41.90
2018-05-15T13:41:31.929Z,41.80
2018-05-15T13:43:58.733Z,42.30
2018-05-15T13:46:24.934Z,42.30
2018-05-15T13:48:51.798Z,42.80
2018-05-15T13:51:18.605Z,43.20
2018-05-15T13:53:45.044Z,43.20
2018-05-15T13:56:11.155Z,43.80
2018-05-15T13:58:37.182Z,43.30
2018-05-15T14:01:03.266Z,43.00
2018-05-15T14:03:29.321Z,42.20
2018-05-15T14:05:55.374Z,42.50
2018-05-15T14:08:22.250Z,42.60
2018-05-15T14:10:48.408Z,42.60
2018-05-15T14:13:15.430Z,42.50
2018-05-15T14:15:41.489Z,42.90
2018-05-15T14:18:07.554Z,43.50
2018-05-15T14:20:33.612Z,43.40
2018-05-15T14:22:59.778Z,43.40
2018-05-15T14:25:26.577Z,43.30
2018-05-15T14:27:52.634Z,43.30
2018-05-15T14:30:18.754Z,43.50
2018-05-15T14:32:44.853Z,43.80
2018-05-15T14:35:10.947Z,43.60
2018-05-15T14:37:36.985Z,43.90
2018-05-15T14:40:03.148Z,43.90
2018-05-15T14:42:41.467Z,42.80
2018-05-15T14:45:07.542Z,42.40
2018-05-15T14:47:33.609Z,42.30
2018-05-15T14:49:59.709Z,43.10
2018-05-15T14:52:26.521Z,43.60
2018-05-15T14:54:52.567Z,43.60
2018-05-15T14:57:18.632Z,44.20
2018-05-15T14:59:44.722Z,44.60
2018-05-15T15:02:10.782Z,44.30
2018-05-15T15:04:36.838Z,44.20
2018-05-15T15:07:02.948Z,44.50
2018-05-15T15:09:29.006Z,44.70
2018-05-15T15:11:55.070Z,44.70
2018-05-15T15:14:21.104Z,44.80
2018-05-15T15:16:47.947Z,44.30
2018-05-15T15:19:14.013Z,44.30
2018-05-15T15:21:40.068Z,44.50
2018-05-15T15:24:06.115Z,44.90
2018-05-15T15:26:32.171Z,44.10
2018-05-15T15:28:58.524Z,44.30
2018-05-15T15:31:24.709Z,44.30
2018-05-15T15:33:50.786Z,44.60
2018-05-15T15:36:17.010Z,45.30
2018-05-15T15:38:43.209Z,45.10
2018-05-15T15:41:10.117Z,44.70
2018-05-15T15:43:36.592Z,44.70
2018-05-15T15:46:03.342Z,44.70
2018-05-15T15:48:29.464Z,44.60
2018-05-15T15:50:55.556Z,45.10
2018-05-15T15:53:22.491Z,44.50
2018-05-15T15:55:48.626Z,44.50
2018-05-15T15:58:14.700Z,41.60
2018-05-15T16:00:40.751Z,39.20
2018-05-15T16:03:06.857Z,37.60
2018-05-15T16:05:33.701Z,34.20
2018-05-15T16:07:59.765Z,34.20
2018-05-15T16:10:25.852Z,32.80
2018-05-15T16:12:52.112Z,31.60
2018-05-15T16:15:18.147Z,30.60
2018-05-15T16:17:44.299Z,30.00
2018-05-15T16:20:10.366Z,29.10
2018-05-15T16:22:36.377Z,28.30
2018-05-15T16:25:02.508Z,27.90
2018-05-15T16:27:30.166Z,27.20
2018-05-15T16:29:56.224Z,27.20
2018-05-15T16:32:23.032Z,26.80
2018-05-15T16:34:49.849Z,26.60
2018-05-15T16:37:16.200Z,26.60
2018-05-15T16:39:42.245Z,26.50
2018-05-15T16:42:08.288Z,26.20
2018-05-15T16:44:34.436Z,26.00
2018-05-15T16:47:00.474Z,25.80
2018-05-15T16:49:26.567Z,25.60
2018-05-15T16:51:53.615Z,25.10
2018-05-15T16:54:19.675Z,25.00
2018-05-15T16:56:45.801Z,24.80
2018-05-15T16:59:12.614Z,24.40
2018-05-15T17:01:38.688Z,24.40
2018-05-15T17:04:04.775Z,24.30
2018-05-15T17:06:30.890Z,24.20
2018-05-15T17:08:57.738Z,24.00
2018-05-15T17:11:24.644Z,23.90
2018-05-15T17:13:50.714Z,23.90
2018-05-15T17:16:16.774Z,23.90
2018-05-15T17:18:43.665Z,23.70
2018-05-15T17:21:09.807Z,23.70
2018-05-15T17:23:35.825Z,23.60
2018-05-15T17:26:01.866Z,23.50
2018-05-15T17:28:27.958Z,23.40
2018-05-15T17:30:54.005Z,23.30
2018-05-15T17:33:20.058Z,23.20
2018-05-15T17:35:47.227Z,23.10
2018-05-15T17:38:13.301Z,23.10
2018-05-15T17:40:39.360Z,23.00
2018-05-15T17:43:05.446Z,23.00
2018-05-15T17:45:31.535Z,23.00
2018-05-15T17:47:57.607Z,23.00
2018-05-15T17:50:24.389Z,23.00
2018-05-15T17:52:50.602Z,22.90
2018-05-15T17:55:16.615Z,22.90
2018-05-15T17:57:42.663Z,22.80
2018-05-15T18:00:08.738Z,22.80
2018-05-15T18:02:34.894Z,22.80
2018-05-15T18:05:01.139Z,22.70
2018-05-15T18:07:27.200Z,22.70
2018-05-15T18:09:53.706Z,22.80
2018-05-15T18:12:19.753Z,22.80
2018-05-15T18:14:45.829Z,22.80
2018-05-15T18:17:12.215Z,22.70
2018-05-15T18:19:38.242Z,22.70
2018-05-15T18:22:04.280Z,22.60
2018-05-15T18:24:30.913Z,22.50
2018-05-15T18:26:57.688Z,22.40
2018-05-15T18:29:24.726Z,22.40
2018-05-15T18:31:50.724Z,22.40
2018-05-15T18:34:16.820Z,22.30
2018-05-15T18:36:43.175Z,22.20
2018-05-15T18:39:09.295Z,22.00
2018-05-15T18:41:36.080Z,21.80
2018-05-15T18:44:02.145Z,21.80
2018-05-15T18:46:28.226Z,21.70
2018-05-15T18:48:55.013Z,21.50
2018-05-15T18:51:21.078Z,21.50
2018-05-15T18:53:47.202Z,21.50
2018-05-15T18:56:13.381Z,21.40
2018-05-15T18:58:40.173Z,21.20
2018-05-15T19:01:06.280Z,21.20
2018-05-15T19:03:32.368Z,21.20
2018-05-15T19:05:58.407Z,21.20
2018-05-15T19:08:24.460Z,21.10
2018-05-15T19:10:50.543Z,21.00
2018-05-15T19:13:16.608Z,21.00
2018-05-15T19:15:42.689Z,21.00
2018-05-15T19:18:08.821Z,20.90
2018-05-15T19:20:34.871Z,20.80
2018-05-15T19:23:00.938Z,20.80
2018-05-15T19:25:27.751Z,20.70
2018-05-15T19:27:53.803Z,20.60
2018-05-15T19:30:19.976Z,20.60
2018-05-15T19:32:46.047Z,20.60
2018-05-15T19:35:18.096Z,20.50
2018-05-15T19:37:44.170Z,20.50
2018-05-15T19:40:12.158Z,20.50
2018-05-15T19:42:38.183Z,20.40
2018-05-15T19:45:04.241Z,20.40
2018-05-15T19:47:30.318Z,20.30
2018-05-15T19:49:56.550Z,20.30
2018-05-15T19:52:22.614Z,20.30
2018-05-15T19:54:48.637Z,20.20
2018-05-15T19:57:14.722Z,20.20
2018-05-15T19:59:40.775Z,20.10
2018-05-15T20:02:06.784Z,20.10
2018-05-15T20:04:32.843Z,20.10
2018-05-15T20:06:58.878Z,20.00
2018-05-15T20:09:24.934Z,20.00
2018-05-15T20:11:51.100Z,20.00
2018-05-15T20:14:17.213Z,20.00
2018-05-15T20:16:43.662Z,19.90
2018-05-15T20:19:09.741Z,19.90
2018-05-15T20:21:35.831Z,19.90
2018-05-15T20:24:01.895Z,19.90
2018-05-15T20:26:27.934Z,19.80
2018-05-15T20:28:53.971Z,19.80
2018-05-15T20:31:20.765Z,19.70
2018-05-15T20:33:46.809Z,19.70
2018-05-15T20:36:13.032Z,19.60
2018-05-15T20:38:39.138Z,19.50
2018-05-15T20:41:05.190Z,19.50
2018-05-15T20:43:32.721Z,19.50
2018-05-15T20:45:58.760Z,19.40
2018-05-15T20:48:25.248Z,19.40
2018-05-15T20:50:51.298Z,19.40
2018-05-15T20:53:17.376Z,19.40
2018-05-15T20:55:45.112Z,19.40
2018-05-15T20:58:11.925Z,19.30
2018-05-15T21:00:38.055Z,19.30
2018-05-15T21:03:04.097Z,19.20
2018-05-15T21:05:30.274Z,19.20
2018-05-15T21:07:56.302Z,19.10
2018-05-15T21:10:22.325Z,19.10
2018-05-15T21:12:48.363Z,19.00
2018-05-15T21:15:15.184Z,18.80
2018-05-15T21:17:41.276Z,18.80
2018-05-15T21:20:07.339Z,18.70
2018-05-15T21:22:33.389Z,18.60
2018-05-15T21:25:01.248Z,18.50
2018-05-15T21:27:27.309Z,18.50
2018-05-15T21:29:53.352Z,18.40
2018-05-15T21:32:19.398Z,18.40
2018-05-15T21:34:45.470Z,18.30
2018-05-15T21:37:12.481Z,18.30
2018-05-15T21:39:38.555Z,18.20
2018-05-15T21:42:05.528Z,18.10
2018-05-15T21:44:31.638Z,18.00
2018-05-15T21:46:58.419Z,17.90
2018-05-15T21:49:24.461Z,17.90
2018-05-15T21:51:50.551Z,17.80
2018-05-15T21:54:16.594Z,17.70
2018-05-15T21:56:42.628Z,17.70
2018-05-15T21:59:08.704Z,17.60
2018-05-15T22:01:34.753Z,17.50
2018-05-15T22:04:00.792Z,17.40
2018-05-15T22:06:26.887Z,17.40
2018-05-15T22:08:52.928Z,17.30
2018-05-15T22:11:18.839Z,17.20
2018-05-15T22:13:57.190Z,17.10
2018-05-15T22:16:35.601Z,16.90
2018-05-15T22:19:13.929Z,16.90
2018-05-15T22:21:52.161Z,16.80
2018-05-15T22:24:18.220Z,16.70
2018-05-15T22:26:45.045Z,16.50
2018-05-15T22:29:11.114Z,16.50
2018-05-15T22:31:37.954Z,16.40
2018-05-15T22:34:04.429Z,16.40
2018-05-15T22:36:30.494Z,16.30
2018-05-15T22:38:56.520Z,16.20
2018-05-15T22:41:22.553Z,16.20
2018-05-15T22:43:48.570Z,16.20
2018-05-15T22:46:14.618Z,16.20
2018-05-15T22:48:40.688Z,16.20
2018-05-15T22:51:06.725Z,16.20
2018-05-15T22:53:32.766Z,16.20
2018-05-15T22:55:58.845Z,16.30
2018-05-15T22:58:24.893Z,16.30
2018-05-15T23:00:50.957Z,16.40
2018-05-15T23:03:17.019Z,16.40
2018-05-15T23:05:43.069Z,16.40
2018-05-15T23:08:09.106Z,16.40
2018-05-15T23:10:35.178Z,16.40
2018-05-15T23:13:01.257Z,16.30
2018-05-15T23:15:27.313Z,16.30
2018-05-15T23:17:53.364Z,16.30
2018-05-15T23:20:19.410Z,16.20
2018-05-15T23:22:45.568Z,16.20
2018-05-15T23:25:11.643Z,16.10
2018-05-15T23:27:37.682Z,16.10
2018-05-15T23:30:04.190Z,16.10
2018-05-15T23:32:30.988Z,16.00
2018-05-15T23:34:57.035Z,16.00
2018-05-15T23:37:23.103Z,16.00
2018-05-15T23:39:49.151Z,16.00
2018-05-15T23:42:15.313Z,16.00
2018-05-15T23:44:41.379Z,16.00
2018-05-15T23:47:08.483Z,16.00
2018-05-15T23:49:34.511Z,16.10
2018-05-15T23:52:00.780Z,16.10
2018-05-15T23:54:26.794Z,16.10
2018-05-15T23:56:52.845Z,16.10
2018-05-15T23:59:19.698Z,16.10
